< < Back
Terminal Aerodrome Forecast


Current Version              Previous Versions:   1  2  3  4  5  6  7  8  9  

Terminal Aerodrome Forecast

384
FTUS42 KMLB 272000 AAA
TAFMCO
TAF AMD
KMCO 272045Z 2721/2818 32011G17KT P6SM SKC
     FM272300 32008KT P6SM SKC=

Latest METAR

928
SAUS70 KWBC 272200 RRN
MTRMCO
METAR KMCO 272153Z 32009KT 10SM CLR 19/05 A3018 RMK AO2 SLP220
T01890050


USA.gov is the U.S. government's official web portal to all federal, state and local government web resources and services.